Time;durP1;ratioP1;P1;durP2;ratioP2;P2;SDS_P1;SDS_P2;PMS_P1;PMS_P2;Temp;Humidity;BMP_temperature;BMP_pressure;BME280_temperature;BME280_humidity;BME280_pressure;Samples;Min_cycle;Max_cycle;Signal;HPM_P1;HPM_P2
2023/10/28 00:00:00;;;;;;;7.60;6.80;;;;;;;10.08;100.00;97146.27;109853;1251;58876;-70
2023/10/28 00:02:27;;;;;;;7.70;5.60;;;;;;;10.07;100.00;97152.39;109845;1250;65615;-70
2023/10/28 00:04:53;;;;;;;6.20;5.60;;;;;;;10.06;100.00;97156.25;109909;1249;59266;-70
2023/10/28 00:07:20;;;;;;;6.50;5.90;;;;;;;10.05;100.00;97158.25;109850;1250;59396;-70
2023/10/28 00:09:46;;;;;;;5.30;4.80;;;;;;;10.05;100.00;97162.86;109876;1250;59018;-70
2023/10/28 00:12:14;;;;;;;6.10;5.50;;;;;;;10.06;100.00;97169.39;109870;1249;59072;-70
2023/10/28 00:14:40;;;;;;;4.90;4.40;;;;;;;10.05;100.00;97174.04;109874;1249;66214;-70
2023/10/28 00:17:07;;;;;;;7.50;5.30;;;;;;;10.06;100.00;97186.07;109583;1250;70004;-70
2023/10/28 00:19:34;;;;;;;5.90;5.40;;;;;;;10.06;100.00;97194.15;109861;1249;59067;-70
2023/10/28 00:22:00;;;;;;;5.80;4.70;;;;;;;10.07;100.00;97196.75;109866;1249;59017;-70
2023/10/28 00:24:27;;;;;;;5.00;4.50;;;;;;;10.07;100.00;97195.02;109568;1250;59023;-69
2023/10/28 00:26:53;;;;;;;6.00;5.10;;;;;;;10.06;100.00;97193.48;109615;1250;66003;-70
2023/10/28 00:29:20;;;;;;;5.40;4.70;;;;;;;10.06;100.00;97196.91;109865;1251;59043;-70
2023/10/28 00:31:47;;;;;;;5.90;4.70;;;;;;;10.04;100.00;97192.92;109881;1249;59077;-70
2023/10/28 00:34:15;;;;;;;6.10;5.20;;;;;;;10.04;100.00;97196.02;109565;1250;59260;-70
2023/10/28 00:36:41;;;;;;;7.20;4.90;;;;;;;10.03;100.00;97195.89;109846;1249;58949;-70
2023/10/28 00:39:08;;;;;;;7.10;5.40;;;;;;;10.04;100.00;97194.97;109860;1249;59495;-71
2023/10/28 00:41:35;;;;;;;6.20;5.30;;;;;;;10.03;100.00;97199.96;109887;1249;61333;-70
2023/10/28 00:44:01;;;;;;;7.30;5.30;;;;;;;10.02;100.00;97194.58;109520;1249;59012;-69
2023/10/28 00:46:28;;;;;;;6.20;5.50;;;;;;;10.00;100.00;97190.18;109821;1250;58983;-69
2023/10/28 00:48:55;;;;;;;6.10;5.50;;;;;;;10.00;100.00;97188.95;109869;1250;59004;-70
2023/10/28 00:51:21;;;;;;;6.40;5.20;;;;;;;10.00;100.00;97185.88;109929;1249;66010;-70
2023/10/28 00:53:49;;;;;;;7.60;5.50;;;;;;;10.01;100.00;97189.37;109634;1249;61341;-70
2023/10/28 00:56:18;;;;;;;6.80;5.30;;;;;;;10.02;100.00;97189.29;109576;1250;64014;-71
2023/10/28 00:58:46;;;;;;;6.60;4.80;;;;;;;10.04;100.00;97199.03;109856;1250;58961;-70
2023/10/28 01:01:14;;;;;;;4.70;4.20;;;;;;;10.05;100.00;97202.67;109588;1250;59337;-70
2023/10/28 01:03:40;;;;;;;4.90;4.40;;;;;;;10.05;100.00;97208.29;109863;1250;64837;-70
2023/10/28 01:06:09;;;;;;;5.20;4.70;;;;;;;10.05;100.00;97208.10;109637;1250;58975;-70
2023/10/28 01:08:36;;;;;;;6.20;4.60;;;;;;;10.06;100.00;97212.51;109602;1250;63920;-69
2023/10/28 01:11:03;;;;;;;6.30;4.60;;;;;;;10.06;100.00;97210.05;109584;1250;59005;-71
2023/10/28 01:13:30;;;;;;;7.90;4.50;;;;;;;10.05;100.00;97208.83;109433;1250;59190;-70
2023/10/28 01:15:59;;;;;;;3.90;3.50;;;;;;;10.04;100.00;97206.79;109617;1250;66173;-70
2023/10/28 01:18:26;;;;;;;4.30;3.70;;;;;;;10.03;100.00;97210.46;109893;1250;60143;-71
2023/10/28 01:20:52;;;;;;;4.70;3.90;;;;;;;10.04;100.00;97217.83;109830;1250;64093;-71
2023/10/28 01:23:19;;;;;;;4.70;4.30;;;;;;;10.04;100.00;97218.86;109518;1250;58987;-71
2023/10/28 01:25:45;;;;;;;4.00;3.70;;;;;;;10.04;100.00;97217.50;109809;1250;59123;-70
2023/10/28 01:28:12;;;;;;;4.50;3.50;;;;;;;10.04;100.00;97221.39;109829;1250;59019;-70
2023/10/28 01:30:38;;;;;;;3.80;3.30;;;;;;;10.03;100.00;97229.42;109885;1249;58993;-70
2023/10/28 01:33:05;;;;;;;4.00;3.70;;;;;;;10.02;100.00;97234.13;109852;1250;59780;-70
2023/10/28 01:35:31;;;;;;;3.30;3.00;;;;;;;10.01;100.00;97233.89;109829;1250;58969;-70
2023/10/28 01:37:58;;;;;;;3.80;3.50;;;;;;;10.01;100.00;97236.40;109864;1251;59057;-70
2023/10/28 01:40:25;;;;;;;4.40;3.20;;;;;;;10.00;100.00;97237.91;109852;1249;59053;-70
2023/10/28 01:42:51;;;;;;;3.70;2.90;;;;;;;9.99;100.00;97239.52;109885;1251;68685;-70
2023/10/28 01:45:18;;;;;;;4.40;2.90;;;;;;;10.00;100.00;97239.12;109804;1249;59453;-70
2023/10/28 01:47:44;;;;;;;3.20;2.60;;;;;;;10.01;100.00;97240.64;109864;1250;58985;-70
2023/10/28 01:50:11;;;;;;;2.80;2.50;;;;;;;10.01;100.00;97247.00;109810;1251;59013;-70
2023/10/28 01:52:39;;;;;;;3.90;2.50;;;;;;;10.01;100.00;97249.69;109546;1251;72454;-70
2023/10/28 01:55:07;;;;;;;3.10;2.90;;;;;;;10.00;100.00;97245.84;109590;1251;61338;-70
2023/10/28 01:57:34;;;;;;;3.40;2.60;;;;;;;10.01;100.00;97248.98;109858;1251;63742;-70
2023/10/28 02:00:04;;;;;;;2.70;2.40;;;;;;;10.01;100.00;97254.45;109420;1249;58897;-70
2023/10/28 02:03:00;;;;;;;3.00;2.40;;;;;;;10.02;100.00;97257.42;109444;1253;59010;-70
2023/10/28 02:05:27;;;;;;;3.10;2.80;;;;;;;10.01;100.00;97257.54;109434;1252;66246;-70
2023/10/28 02:07:53;;;;;;;2.90;2.70;;;;;;;10.01;100.00;97268.83;109174;1253;60043;-70
2023/10/28 02:10:20;;;;;;;2.80;2.60;;;;;;;10.02;100.00;97268.55;109435;1253;59089;-69
2023/10/28 02:12:48;;;;;;;2.90;2.40;;;;;;;10.03;100.00;97264.24;109409;1253;59047;-69
2023/10/28 02:15:14;;;;;;;2.80;2.40;;;;;;;10.04;100.00;97265.61;109233;1253;58944;-70
2023/10/28 02:17:41;;;;;;;4.20;3.40;;;;;;;10.03;100.00;97268.43;109456;1254;59050;-69
2023/10/28 02:20:10;;;;;;;5.60;3.40;;;;;;;10.05;100.00;97269.89;109483;1253;60478;-71
2023/10/28 02:22:36;;;;;;;3.40;3.00;;;;;;;10.06;100.00;97275.83;109429;1253;64081;-70
2023/10/28 02:25:04;;;;;;;3.90;3.50;;;;;;;10.06;100.00;97277.23;109454;1253;59029;-70
2023/10/28 02:27:30;;;;;;;3.30;3.00;;;;;;;10.07;100.00;97278.70;109440;1253;59162;-70
2023/10/28 02:29:57;;;;;;;3.50;2.50;;;;;;;10.08;100.00;97276.51;109471;1253;64844;-70
2023/10/28 02:32:23;;;;;;;3.10;2.80;;;;;;;10.09;100.00;97280.14;109414;1253;59093;-70
2023/10/28 02:34:49;;;;;;;2.80;2.40;;;;;;;10.10;100.00;97280.27;109794;1251;59049;-70
2023/10/28 02:37:16;;;;;;;2.60;2.40;;;;;;;10.10;100.00;97278.41;109826;1249;58998;-70
2023/10/28 02:39:42;;;;;;;4.00;2.30;;;;;;;10.11;100.00;97270.91;109550;1250;59111;-71
2023/10/28 02:42:09;;;;;;;2.70;2.30;;;;;;;10.13;100.00;97274.19;109852;1251;59700;-70
2023/10/28 02:44:36;;;;;;;1.90;1.60;;;;;;;10.14;100.00;97282.23;109604;1250;59705;-70
2023/10/28 02:47:03;;;;;;;3.40;1.90;;;;;;;10.16;100.00;97281.13;109583;1251;64025;-71
2023/10/28 02:49:29;;;;;;;2.60;1.90;;;;;;;10.18;100.00;97286.45;109840;1249;59103;-71
2023/10/28 02:51:56;;;;;;;2.30;1.80;;;;;;;10.19;100.00;97286.91;109835;1250;58870;-70
2023/10/28 02:54:22;;;;;;;2.60;1.80;;;;;;;10.20;100.00;97288.21;109873;1249;59575;-69
2023/10/28 02:56:48;;;;;;;1.90;1.80;;;;;;;10.23;100.00;97287.05;109430;1250;59054;-69
2023/10/28 02:59:15;;;;;;;2.70;2.40;;;;;;;10.24;100.00;97288.23;109839;1250;59377;-70
2023/10/28 03:01:42;;;;;;;2.60;1.50;;;;;;;10.23;100.00;97286.83;109856;1249;58948;-71
2023/10/28 03:04:09;;;;;;;1.50;1.40;;;;;;;10.24;100.00;97292.08;109852;1250;59027;-70
2023/10/28 03:06:36;;;;;;;2.90;1.70;;;;;;;10.25;100.00;97296.83;109821;1251;64897;-70
2023/10/28 03:09:02;;;;;;;2.80;1.70;;;;;;;10.25;100.00;97298.95;109825;1249;58932;-70
2023/10/28 03:11:29;;;;;;;2.20;1.60;;;;;;;10.25;100.00;97297.69;109794;1250;59003;-70
2023/10/28 03:13:55;;;;;;;5.60;2.00;;;;;;;10.25;100.00;97298.15;109563;1251;59019;-70
2023/10/28 03:16:22;;;;;;;3.20;1.70;;;;;;;10.26;100.00;97301.13;109817;1250;59046;-70
2023/10/28 03:18:48;;;;;;;3.00;1.70;;;;;;;10.27;100.00;97298.70;109587;1251;66171;-70
2023/10/28 03:21:15;;;;;;;6.20;2.20;;;;;;;10.29;100.00;97299.65;109822;1249;58937;-69
2023/10/28 03:23:42;;;;;;;3.80;2.20;;;;;;;10.29;100.00;97298.95;109807;1249;58962;-70
2023/10/28 03:26:08;;;;;;;2.30;1.80;;;;;;;10.28;100.00;97304.47;109590;1249;58959;-70
2023/10/28 03:28:35;;;;;;;3.60;2.50;;;;;;;10.28;100.00;97303.10;109599;1252;58998;-70
2023/10/28 03:31:12;;;;;;;3.40;2.40;;;;;;;10.26;100.00;97307.71;109824;1250;59326;-71
2023/10/28 03:33:39;;;;;;;3.20;1.80;;;;;;;10.22;100.00;97314.64;109854;1250;59023;-70
2023/10/28 03:36:09;;;;;;;3.40;2.00;;;;;;;10.18;100.00;97316.58;109558;1251;62854;-69
2023/10/28 03:38:35;;;;;;;1.90;1.80;;;;;;;10.14;100.00;97321.40;109605;1251;59058;-70
2023/10/28 03:41:10;;;;;;;3.50;2.20;;;;;;;10.09;100.00;97316.74;109635;1251;59069;-70
2023/10/28 03:43:37;;;;;;;2.30;1.50;;;;;;;10.05;100.00;97316.02;109812;1250;66024;-71
2023/10/28 03:46:04;;;;;;;3.50;1.90;;;;;;;10.02;100.00;97319.51;109835;1250;59049;-72
2023/10/28 03:48:31;;;;;;;3.50;2.10;;;;;;;9.97;100.00;97319.75;109536;1251;65158;-71
2023/10/28 03:51:05;;;;;;;2.90;1.90;;;;;;;9.93;100.00;97312.50;109799;1250;59386;-72
2023/10/28 03:53:32;;;;;;;3.20;1.70;;;;;;;9.89;100.00;97310.59;109861;1250;58940;-71
2023/10/28 03:55:58;;;;;;;2.10;1.50;;;;;;;9.84;100.00;97309.03;109853;1251;58929;-71
2023/10/28 03:58:24;;;;;;;2.80;1.90;;;;;;;9.81;100.00;97315.38;109842;1251;58974;-71
2023/10/28 04:00:53;;;;;;;2.60;1.90;;;;;;;9.78;100.00;97318.48;109842;1251;58961;-71
2023/10/28 04:03:20;;;;;;;2.80;2.40;;;;;;;9.75;100.00;97318.63;109827;1249;59034;-70
2023/10/28 04:05:47;;;;;;;1.90;1.70;;;;;;;9.70;100.00;97317.96;109609;1251;59028;-68
2023/10/28 04:08:14;;;;;;;3.00;1.80;;;;;;;9.65;100.00;97323.04;109825;1251;67160;-70
2023/10/28 04:10:41;;;;;;;1.80;1.60;;;;;;;9.62;100.00;97327.92;109589;1249;59528;-70
2023/10/28 04:13:08;;;;;;;1.70;1.50;;;;;;;9.61;100.00;97329.05;109851;1250;65158;-71
2023/10/28 04:15:37;;;;;;;2.10;1.70;;;;;;;9.60;100.00;97322.44;109801;1250;58934;-70
2023/10/28 04:18:04;;;;;;;3.40;1.90;;;;;;;9.59;100.00;97324.45;109829;1251;59040;-70
2023/10/28 04:20:31;;;;;;;2.50;1.70;;;;;;;9.57;100.00;97326.27;109772;1249;59241;-70
2023/10/28 04:22:57;;;;;;;2.10;1.60;;;;;;;9.56;100.00;97328.30;109825;1252;60229;-70
2023/10/28 04:25:23;;;;;;;2.90;1.80;;;;;;;9.55;100.00;97325.69;109868;1249;59126;-71
2023/10/28 04:27:50;;;;;;;2.00;1.80;;;;;;;9.55;100.00;97328.39;109805;1253;59104;-70
2023/10/28 04:30:18;;;;;;;3.10;1.90;;;;;;;9.52;100.00;97325.64;109833;1250;58955;-70
2023/10/28 04:32:45;;;;;;;3.80;1.90;;;;;;;9.49;100.00;97329.79;109599;1251;64617;-70
2023/10/28 04:35:11;;;;;;;4.00;2.10;;;;;;;9.49;100.00;97331.96;109830;1251;59027;-70
2023/10/28 04:37:38;;;;;;;2.60;1.90;;;;;;;9.46;100.00;97334.86;109817;1249;58983;-70
2023/10/28 04:40:05;;;;;;;3.60;1.90;;;;;;;9.44;100.00;97340.71;109539;1251;59076;-71
2023/10/28 04:42:32;;;;;;;2.90;2.40;;;;;;;9.43;100.00;97342.86;109449;1249;59069;-71
2023/10/28 04:44:58;;;;;;;3.00;1.80;;;;;;;9.42;100.00;97344.56;109825;1251;65739;-71
2023/10/28 04:47:24;;;;;;;2.10;1.80;;;;;;;9.40;100.00;97342.77;109850;1251;58961;-71
2023/10/28 04:49:51;;;;;;;2.10;1.80;;;;;;;9.40;100.00;97339.63;109782;1251;59090;-70
2023/10/28 04:52:17;;;;;;;3.40;1.60;;;;;;;9.39;100.00;97341.64;109834;1251;59021;-70
2023/10/28 04:54:44;;;;;;;2.20;1.30;;;;;;;9.36;100.00;97341.03;109867;1251;59053;-71
2023/10/28 04:57:11;;;;;;;1.80;1.50;;;;;;;9.34;100.00;97335.77;109806;1250;59064;-71
2023/10/28 04:59:39;;;;;;;2.90;1.80;;;;;;;9.33;100.00;97344.27;109559;1251;60287;-70
2023/10/28 05:02:06;;;;;;;2.00;1.60;;;;;;;9.33;100.00;97346.61;109655;1251;64060;-71
2023/10/28 05:04:33;;;;;;;2.60;1.30;;;;;;;9.31;100.00;97350.00;109672;1251;59510;-70
2023/10/28 05:07:01;;;;;;;3.40;1.70;;;;;;;9.29;100.00;97351.02;109747;1251;59010;-71
2023/10/28 05:09:28;;;;;;;5.00;1.50;;;;;;;9.28;100.00;97356.09;109672;1250;64636;-72
2023/10/28 05:11:58;;;;;;;2.30;1.60;;;;;;;9.27;100.00;97360.98;109687;1250;58997;-71
2023/10/28 05:14:25;;;;;;;;;;;;;;;9.24;100.00;97363.54;109501;1251;64294;-70
2023/10/28 05:16:55;;;;;;;2.90;1.40;;;;;;;9.19;100.00;97367.83;109562;1251;58991;-70
2023/10/28 05:19:22;;;;;;;1.90;1.40;;;;;;;9.17;100.00;97368.36;109497;1256;58906;-70
2023/10/28 05:21:49;;;;;;;1.80;1.70;;;;;;;9.17;100.00;97368.56;109693;1251;65736;-71
2023/10/28 05:24:16;;;;;;;4.30;1.60;;;;;;;9.17;100.00;97370.13;109714;1251;59845;-71
2023/10/28 05:26:45;;;;;;;4.50;1.60;;;;;;;9.16;100.00;97367.63;109737;1251;62870;-71
2023/10/28 05:29:12;;;;;;;3.00;1.60;;;;;;;9.15;100.00;97368.60;109661;1251;59103;-71
2023/10/28 05:31:38;;;;;;;2.10;1.70;;;;;;;9.14;100.00;97374.52;109705;1250;58983;-71
2023/10/28 05:34:05;;;;;;;2.40;1.30;;;;;;;9.14;100.00;97377.50;109674;1253;59078;-71
2023/10/28 05:36:31;;;;;;;1.60;1.50;;;;;;;9.14;100.00;97378.23;109725;1253;58997;-71
2023/10/28 05:38:59;;;;;;;2.70;1.60;;;;;;;9.13;100.00;97378.98;109652;1251;59036;-71
2023/10/28 05:41:25;;;;;;;2.10;1.30;;;;;;;9.14;100.00;97377.66;109698;1251;59278;-71
2023/10/28 05:43:52;;;;;;;3.10;1.30;;;;;;;9.17;100.00;97380.41;109691;1250;58974;-71
2023/10/28 05:46:22;;;;;;;4.00;1.50;;;;;;;9.19;100.00;97387.00;109730;1251;59352;-70
2023/10/28 05:48:52;;;;;;;2.30;1.70;;;;;;;9.21;100.00;97387.17;109652;1251;59334;-71
2023/10/28 05:51:18;;;;;;;2.90;1.90;;;;;;;9.21;100.00;97391.53;109505;1251;63804;-71
2023/10/28 05:53:45;;;;;;;3.10;1.70;;;;;;;9.24;100.00;97393.84;109674;1251;58951;-71
2023/10/28 05:56:11;;;;;;;2.30;1.60;;;;;;;9.25;100.00;97397.69;109731;1251;58842;-70
2023/10/28 05:58:38;;;;;;;2.50;1.50;;;;;;;9.27;100.00;97400.16;109707;1251;59313;-71
2023/10/28 06:01:04;;;;;;;4.50;1.90;;;;;;;9.31;100.00;97400.00;109702;1250;59022;-70
2023/10/28 06:03:31;;;;;;;2.60;1.20;;;;;;;9.34;100.00;97405.70;109692;1251;59063;-71
2023/10/28 06:05:57;;;;;;;2.50;1.20;;;;;;;9.40;100.00;97403.92;109668;1251;58933;-71
2023/10/28 06:08:24;;;;;;;2.40;1.90;;;;;;;9.46;100.00;97400.61;109665;1251;58805;-71
2023/10/28 06:10:50;;;;;;;3.10;2.80;;;;;;;9.50;100.00;97404.38;109709;1251;59454;-74
2023/10/28 06:13:17;;;;;;;3.70;2.00;;;;;;;9.53;100.00;97416.34;109830;1251;58980;-71
2023/10/28 06:15:44;;;;;;;3.10;1.90;;;;;;;9.56;100.00;97422.90;109772;1250;59123;-71
2023/10/28 06:18:11;;;;;;;3.10;1.80;;;;;;;9.61;100.00;97430.50;109527;1251;59096;-71
2023/10/28 06:20:38;;;;;;;6.00;2.10;;;;;;;9.65;100.00;97435.46;109873;1249;61335;-71
2023/10/28 06:23:06;;;;;;;2.70;2.10;;;;;;;9.69;100.00;97438.31;109791;1251;59024;-71
2023/10/28 06:25:34;;;;;;;2.60;1.60;;;;;;;9.72;100.00;97441.41;109808;1251;59868;-71
2023/10/28 06:28:02;;;;;;;3.60;1.70;;;;;;;9.74;100.00;97447.77;109770;1249;73719;-70
2023/10/28 06:30:28;;;;;;;4.50;1.50;;;;;;;9.80;100.00;97455.06;109555;1251;58992;-71
2023/10/28 06:32:55;;;;;;;2.50;1.80;;;;;;;9.86;100.00;97467.15;109811;1251;58975;-71
2023/10/28 06:35:22;;;;;;;3.50;2.00;;;;;;;9.92;100.00;97473.02;109842;1251;67194;-72
2023/10/28 06:37:48;;;;;;;2.60;2.10;;;;;;;9.97;100.00;97475.16;109796;1249;59363;-71
2023/10/28 06:40:15;;;;;;;1.60;1.50;;;;;;;10.02;100.00;97477.73;109783;1249;59134;-73
2023/10/28 06:42:42;;;;;;;2.10;1.20;;;;;;;10.08;100.00;97477.91;109809;1250;59052;-71
2023/10/28 06:45:09;;;;;;;2.70;1.30;;;;;;;10.15;100.00;97479.83;109602;1250;58971;-70
2023/10/28 06:47:36;;;;;;;1.60;1.20;;;;;;;10.20;100.00;97481.47;109799;1249;64667;-70
2023/10/28 06:50:06;;;;;;;2.20;1.30;;;;;;;10.26;100.00;97485.95;109816;1251;59105;-69
2023/10/28 06:52:33;;;;;;;;;;;;;;;10.31;100.00;97489.52;109843;1251;64070;-69
2023/10/28 06:54:59;;;;;;;3.50;2.10;;;;;;;10.37;100.00;97495.59;109776;1250;58941;-69
2023/10/28 06:57:27;;;;;;;2.30;1.30;;;;;;;10.43;100.00;97498.83;109815;1250;58929;-70
2023/10/28 06:59:53;;;;;;;3.30;1.60;;;;;;;10.48;100.00;97502.02;109539;1254;73352;-70
2023/10/28 07:02:21;;;;;;;3.30;2.50;;;;;;;10.53;100.00;97506.36;109792;1249;59242;-69
2023/10/28 07:04:48;;;;;;;4.70;3.00;;;;;;;10.59;100.00;97506.20;109780;1249;64379;-69
2023/10/28 07:07:14;;;;;;;3.30;1.80;;;;;;;10.64;100.00;97511.05;109774;1250;58993;-71
2023/10/28 07:09:41;;;;;;;2.00;1.50;;;;;;;10.70;100.00;97515.83;109598;1249;59027;-68
2023/10/28 07:12:07;;;;;;;2.40;1.10;;;;;;;10.77;100.00;97519.84;109793;1251;58980;-67
2023/10/28 07:14:34;;;;;;;2.90;1.10;;;;;;;10.85;100.00;97523.06;109772;1249;59431;-67
2023/10/28 07:17:01;;;;;;;2.20;1.30;;;;;;;10.91;100.00;97523.38;109796;1250;59531;-67
2023/10/28 07:19:27;;;;;;;2.00;1.20;;;;;;;10.97;100.00;97528.48;109808;1249;59021;-67
2023/10/28 07:21:54;;;;;;;3.00;1.20;;;;;;;11.03;100.00;97533.08;109759;1251;59086;-67
2023/10/28 07:24:21;;;;;;;1.90;1.20;;;;;;;11.09;100.00;97535.42;109796;1251;66006;-67
2023/10/28 07:26:47;;;;;;;1.90;1.20;;;;;;;11.15;100.00;97537.03;109808;1250;59357;-67
2023/10/28 07:29:14;;;;;;;3.80;1.20;;;;;;;11.21;100.00;97538.23;109810;1251;63777;-68
2023/10/28 07:31:40;;;;;;;1.90;1.10;;;;;;;11.27;100.00;97541.21;109789;1249;59184;-68
2023/10/28 07:34:07;;;;;;;3.00;1.30;;;;;;;11.34;100.00;97545.92;109451;1254;59224;-68
2023/10/28 07:36:34;;;;;;;2.70;1.20;;;;;;;11.45;100.00;97549.27;109312;1254;65909;-68
2023/10/28 07:39:03;;;;;;;2.10;1.10;;;;;;;11.64;100.00;97555.39;109443;1254;60099;-68
2023/10/28 07:41:30;;;;;;;3.90;1.30;;;;;;;11.92;100.00;97557.92;109458;1253;64021;-68
2023/10/28 07:43:57;;;;;;;2.10;1.20;;;;;;;12.13;100.00;97565.33;109422;1254;59262;-68
2023/10/28 07:46:25;;;;;;;1.90;1.30;;;;;;;12.24;100.00;97576.68;109469;1252;59474;-68
2023/10/28 07:48:55;;;;;;;2.70;1.20;;;;;;;12.32;100.00;97582.21;109236;1253;65891;-67
2023/10/28 07:51:21;;;;;;;1.40;0.90;;;;;;;12.37;100.00;97582.92;109365;1254;60164;-68
2023/10/28 07:53:52;;;;;;;1.70;1.20;;;;;;;12.38;100.00;97585.67;109489;1254;62548;-68
2023/10/28 07:56:19;;;;;;;;;;;;;;;12.43;100.00;97587.73;109459;1252;59022;-67
2023/10/28 07:58:46;;;;;;;2.50;1.00;;;;;;;12.42;100.00;97588.69;109465;1254;59085;-67
2023/10/28 08:01:17;;;;;;;1.80;0.90;;;;;;;12.36;100.00;97591.58;109455;1254;65017;-67
2023/10/28 08:03:46;;;;;;;1.50;1.10;;;;;;;12.31;100.00;97590.67;109473;1253;59082;-68
2023/10/28 08:06:13;;;;;;;0.90;0.70;;;;;;;12.30;100.00;97592.67;109760;1249;65274;-67
2023/10/28 08:08:40;;;;;;;2.00;1.10;;;;;;;12.41;100.00;97592.18;109746;1250;58946;-67
2023/10/28 08:11:08;;;;;;;1.50;1.20;;;;;;;12.53;100.00;97592.23;109804;1249;58942;-67
2023/10/28 08:13:36;;;;;;;3.80;1.10;;;;;;;12.65;100.00;97594.69;109802;1249;65955;-66
2023/10/28 08:16:03;;;;;;;2.60;0.90;;;;;;;12.73;100.00;97597.92;109830;1250;60099;-67
2023/10/28 08:18:33;;;;;;;1.30;1.00;;;;;;;12.87;100.00;97597.86;109489;1251;73533;-66
2023/10/28 08:21:00;;;;;;;2.80;1.20;;;;;;;12.97;100.00;97604.71;109759;1250;59098;-67
2023/10/28 08:23:28;;;;;;;4.00;1.20;;;;;;;13.07;100.00;97607.66;109777;1249;59306;-67
2023/10/28 08:25:57;;;;;;;1.30;1.20;;;;;;;13.15;100.00;97609.09;109791;1250;64971;-67
2023/10/28 08:28:26;;;;;;;1.70;1.00;;;;;;;13.15;100.00;97615.56;109816;1250;59908;-67
2023/10/28 08:30:52;;;;;;;2.10;1.00;;;;;;;13.13;100.00;97622.02;109391;1251;64268;-67
2023/10/28 08:33:20;;;;;;;1.30;1.10;;;;;;;13.13;100.00;97625.54;109788;1250;58945;-67
2023/10/28 08:35:47;;;;;;;1.40;1.20;;;;;;;13.20;100.00;97632.59;109784;1250;59007;-67
2023/10/28 08:38:17;;;;;;;1.90;1.00;;;;;;;13.28;100.00;97632.71;109742;1251;64837;-67
2023/10/28 08:40:45;;;;;;;0.90;0.80;;;;;;;13.34;100.00;97634.03;109576;1251;61096;-67
2023/10/28 08:43:14;;;;;;;1.70;0.80;;;;;;;13.38;100.00;97635.56;109745;1250;62521;-67
2023/10/28 08:45:45;;;;;;;4.80;1.00;;;;;;;13.41;100.00;97636.56;109552;1250;59365;-67
2023/10/28 08:48:13;;;;;;;1.30;0.80;;;;;;;13.45;100.00;97633.55;109760;1250;59016;-66
2023/10/28 08:50:45;;;;;;;2.20;1.00;;;;;;;13.51;100.00;97635.23;109505;1249;66072;-67
2023/10/28 08:53:15;;;;;;;1.10;0.90;;;;;;;13.56;100.00;97634.44;109787;1250;60007;-67
2023/10/28 08:55:44;;;;;;;1.70;0.90;;;;;;;13.55;100.00;97643.34;109764;1249;63796;-66
2023/10/28 08:58:12;;;;;;;0.70;0.70;;;;;;;13.53;100.00;97650.17;109783;1249;59007;-67
2023/10/28 09:00:39;;;;;;;3.50;1.00;;;;;;;13.51;100.00;97652.67;109772;1250;58862;-67
2023/10/28 09:03:06;;;;;;;1.00;0.80;;;;;;;13.54;100.00;97658.02;109789;1249;64623;-66
2023/10/28 09:05:32;;;;;;;2.60;1.00;;;;;;;13.59;100.00;97658.21;109841;1249;59089;-67
2023/10/28 09:07:59;;;;;;;2.30;1.40;;;;;;;13.65;100.00;97662.70;109723;1249;95846;-67
2023/10/28 09:10:26;;;;;;;1.80;1.00;;;;;;;13.69;100.00;97663.70;109759;1250;59421;-67
2023/10/28 09:12:53;;;;;;;2.00;1.20;;;;;;;13.70;100.00;97668.59;109790;1251;59027;-67
2023/10/28 09:15:20;;;;;;;1.20;1.00;;;;;;;13.71;100.00;97672.80;109606;1251;58917;-67
2023/10/28 09:17:46;;;;;;;2.00;1.00;;;;;;;13.72;100.00;97676.58;109785;1250;59031;-68
2023/10/28 09:20:13;;;;;;;2.00;0.80;;;;;;;13.77;100.00;97676.61;109793;1249;64089;-67
2023/10/28 09:22:42;;;;;;;2.30;1.00;;;;;;;13.84;100.00;97678.08;109759;1250;58955;-67
2023/10/28 09:25:10;;;;;;;2.60;1.50;;;;;;;13.90;100.00;97677.98;109840;1249;59025;-66
2023/10/28 09:27:37;;;;;;;2.00;0.90;;;;;;;13.94;100.00;97681.33;109784;1249;67635;-67
2023/10/28 09:30:06;;;;;;;1.70;1.30;;;;;;;14.00;100.00;97681.40;109567;1251;61066;-67
2023/10/28 09:32:33;;;;;;;2.60;1.30;;;;;;;14.08;100.00;97676.90;109757;1249;65331;-66
2023/10/28 09:35:05;;;;;;;2.40;1.10;;;;;;;14.09;100.00;97681.11;109541;1250;59053;-67
2023/10/28 09:37:37;;;;;;;2.60;1.00;;;;;;;14.04;100.00;97685.35;109782;1250;58984;-68
2023/10/28 09:40:06;;;;;;;3.30;1.10;;;;;;;14.03;100.00;97683.27;109827;1250;64551;-67
2023/10/28 09:42:36;;;;;;;2.30;1.00;;;;;;;14.05;100.00;97682.52;109789;1250;60093;-67
2023/10/28 09:45:11;;;;;;;1.80;1.00;;;;;;;14.11;100.00;97683.05;109837;1249;64118;-67
2023/10/28 09:48:02;;;;;;;1.70;0.80;;;;;;;14.14;100.00;97683.38;109806;1249;58972;-66
2023/10/28 09:50:30;;;;;;;2.20;1.00;;;;;;;14.21;100.00;97679.02;109813;1250;58938;-67
2023/10/28 09:52:58;;;;;;;1.80;1.10;;;;;;;14.27;100.00;97678.65;109769;1249;75623;-68
2023/10/28 09:55:35;;;;;;;2.60;1.30;;;;;;;14.30;100.00;97674.44;109801;1249;59885;-67
2023/10/28 09:58:19;;;;;;;2.10;1.10;;;;;;;14.29;100.00;97677.77;109813;1250;65027;-67
2023/10/28 10:00:48;;;;;;;0.90;0.80;;;;;;;14.27;100.00;97679.52;109798;1249;59220;-68
2023/10/28 10:03:31;;;;;;;2.90;1.30;;;;;;;14.27;100.00;97681.38;109868;1250;58872;-68
2023/10/28 10:05:58;;;;;;;2.20;1.00;;;;;;;14.31;100.00;97682.07;109818;1250;66188;-67
2023/10/28 10:08:25;;;;;;;1.90;1.20;;;;;;;14.29;100.00;97682.94;109823;1250;59872;-67
2023/10/28 10:10:55;;;;;;;2.80;1.50;;;;;;;14.23;100.00;97682.50;109829;1249;62863;-68
2023/10/28 10:13:22;;;;;;;2.80;0.90;;;;;;;14.20;100.00;97680.63;109532;1249;59290;-67
2023/10/28 10:15:57;;;;;;;2.30;1.30;;;;;;;14.17;100.00;97680.02;109340;1250;59017;-67
2023/10/28 10:18:39;;;;;;;2.50;1.60;;;;;;;14.15;100.00;97682.78;109563;1250;67027;-68
2023/10/28 10:21:14;;;;;;;3.40;1.30;;;;;;;14.08;100.00;97680.48;109460;1250;61033;-67
2023/10/28 10:23:53;;;;;;;1.30;1.20;;;;;;;14.03;100.00;97676.64;109800;1249;62735;-68
2023/10/28 10:26:21;;;;;;;2.50;1.10;;;;;;;14.08;100.00;97677.71;109864;1250;59223;-68
2023/10/28 10:28:51;;;;;;;2.60;1.20;;;;;;;14.16;100.00;97677.63;109767;1249;59032;-68
2023/10/28 10:31:19;;;;;;;2.50;1.20;;;;;;;14.27;100.00;97677.67;109833;1249;66094;-67
2023/10/28 10:33:46;;;;;;;1.90;1.50;;;;;;;14.38;100.00;97682.38;109810;1249;60156;-68
2023/10/28 10:36:19;;;;;;;3.20;1.70;;;;;;;14.46;100.00;97682.42;109822;1249;63902;-68
2023/10/28 10:38:46;;;;;;;2.10;1.60;;;;;;;14.48;100.00;97687.57;109477;1249;59082;-67
2023/10/28 10:41:25;;;;;;;3.20;1.60;;;;;;;14.50;100.00;97690.26;109838;1249;58943;-68
2023/10/28 10:43:52;;;;;;;3.10;2.10;;;;;;;14.52;100.00;97692.55;109570;1251;65996;-67
2023/10/28 10:46:19;;;;;;;3.70;2.00;;;;;;;14.57;100.00;97690.13;109579;1249;59070;-67
2023/10/28 10:48:47;;;;;;;1.90;1.40;;;;;;;14.63;100.00;97693.78;109866;1249;64036;-68
2023/10/28 10:51:17;;;;;;;2.70;1.70;;;;;;;14.68;100.00;97697.73;109823;1250;59049;-67
2023/10/28 10:53:44;;;;;;;4.50;2.10;;;;;;;14.73;100.00;97698.95;109796;1249;58960;-67
2023/10/28 10:56:20;;;;;;;3.80;2.10;;;;;;;14.75;100.00;97707.14;109644;1250;64845;-67
2023/10/28 10:58:46;;;;;;;2.80;1.80;;;;;;;14.77;100.00;97707.85;109445;1249;59920;-67
2023/10/28 11:01:15;;;;;;;2.50;1.70;;;;;;;14.80;100.00;97708.27;109843;1249;59302;-67
2023/10/28 11:03:42;;;;;;;3.30;2.40;;;;;;;14.78;100.00;97711.65;109819;1249;59032;-67
2023/10/28 11:06:10;;;;;;;2.60;2.00;;;;;;;14.76;100.00;97713.34;109854;1249;59097;-67
2023/10/28 11:08:36;;;;;;;3.20;1.90;;;;;;;14.72;100.00;97711.75;109452;1249;66121;-68
2023/10/28 11:11:03;;;;;;;3.10;2.10;;;;;;;14.66;100.00;97709.85;109692;1250;59323;-68
2023/10/28 11:13:30;;;;;;;3.40;2.30;;;;;;;14.62;100.00;97706.54;109683;1250;62856;-68
2023/10/28 11:15:57;;;;;;;4.00;2.00;;;;;;;14.56;100.00;97711.30;109679;1250;58985;-68
2023/10/28 11:18:23;;;;;;;2.20;1.80;;;;;;;14.47;100.00;97712.45;109665;1249;59047;-68
2023/10/28 11:20:52;;;;;;;3.20;2.10;;;;;;;14.46;100.00;97704.91;109653;1250;58925;-67